Time;durP1;ratioP1;P1;durP2;ratioP2;P2;SDS_P1;SDS_P2;PMS_P1;PMS_P2;Temp;Humidity;BMP_temperature;BMP_pressure;BME280_temperature;BME280_humidity;BME280_pressure;Samples;Min_cycle;Max_cycle;Signal;HPM_P1;HPM_P2
2022/10/24 00:00:58;;;;;;;;;;;;;;;;;;5055828;28;19909;-67
2022/10/24 00:03:24;;;;;;;;;;;;;;;;;;5055594;28;20324;-67
2022/10/24 00:05:50;;;;;;;;;;;;;;;;;;5055251;28;19909;-67
2022/10/24 00:08:16;;;;;;;;;;;;;;;;;;5056007;28;19927;-67
2022/10/24 00:10:42;;;;;;;;;;;;;;;;;;5055564;28;19908;-67
2022/10/24 00:13:08;;;;;;;;;;;;;;;;;;5054408;28;19913;-67
2022/10/24 00:15:34;;;;;;;;;;;;;;;;;;5055797;28;19908;-67
2022/10/24 00:18:00;;;;;;;;;;;;;;;;;;5055583;28;19991;-68
2022/10/24 00:20:26;;;;;;;;;;;;;;;;;;5055002;28;19909;-67
2022/10/24 00:22:52;;;;;;;;;;;;;;;;;;5055215;28;19924;-67
2022/10/24 00:25:18;;;;;;;;;;;;;;;;;;5054588;28;20163;-67
2022/10/24 00:27:44;;;;;;;;;;;;;;;;;;5054396;28;19916;-67
2022/10/24 00:30:10;;;;;;;;;;;;;;;;;;5055126;28;19931;-67
2022/10/24 00:32:36;;;;;;;;;;;;;;;;;;5055144;28;19909;-67
2022/10/24 00:35:01;;;;;;;;;;;;;;;;;;5054631;28;19916;-67
2022/10/24 00:37:27;;;;;;;;;;;;;;;;;;5054920;28;19909;-67
2022/10/24 00:39:53;;;;;;;;;;;;;;;;;;5055021;28;19916;-67
2022/10/24 00:42:19;;;;;;;;;;;;;;;;;;5054421;28;19920;-67
2022/10/24 00:44:45;;;;;;;;;;;;;;;;;;5054814;28;19947;-67
2022/10/24 00:47:11;;;;;;;;;;;;;;;;;;5055051;28;19908;-67
2022/10/24 00:49:37;;;;;;;;;;;;;;;;;;5054389;28;19915;-67
2022/10/24 00:52:03;;;;;;;;;;;;;;;;;;5053436;28;19913;-67
2022/10/24 00:54:29;;;;;;;;;;;;;;;;;;5054671;28;19909;-67
2022/10/24 00:56:55;;;;;;;;;;;;;;;;;;5052933;28;20130;-67
2022/10/24 00:59:21;;;;;;;;;;;;;;;;;;5054537;28;20292;-67
2022/10/24 01:01:47;;;;;;;;;;;;;;;;;;5053889;28;19995;-66
2022/10/24 01:04:13;;;;;;;;;;;;;;;;;;5054521;28;19916;-67
2022/10/24 01:06:39;;;;;;;;;;;;;;;;;;5054403;28;19964;-67
2022/10/24 01:09:05;;;;;;;;;;;;;;;;;;5054014;28;19909;-67
2022/10/24 01:11:31;;;;;;;;;;;;;;;;;;5054256;28;19948;-67
2022/10/24 01:13:57;;;;;;;;;;;;;;;;;;5054329;28;19917;-67
2022/10/24 01:16:22;;;;;;;;;;;;;;;;;;5053856;28;19909;-67
2022/10/24 01:18:48;;;;;;;;;;;;;;;;;;5054250;28;19967;-67
2022/10/24 01:21:14;;;;;;;;;;;;;;;;;;5054306;28;19909;-66
2022/10/24 01:23:40;;;;;;;;;;;;;;;;;;5053812;28;19924;-67
2022/10/24 01:26:06;;;;;;;;;;;;;;;;;;5052838;28;19909;-67
2022/10/24 01:28:32;;;;;;;;;;;;;;;;;;5054031;28;19913;-67
2022/10/24 01:30:58;;;;;;;;;;;;;;;;;;5053709;28;19955;-67
2022/10/24 01:33:24;;;;;;;;;;;;;;;;;;5053960;28;19909;-67
2022/10/24 01:35:50;;;;;;;;;;;;;;;;;;5052632;28;19909;-67
2022/10/24 01:38:16;;;;;;;;;;;;;;;;;;5053376;28;19908;-67
2022/10/24 01:40:44;;;;;;;;;;;;;;;;;;5054043;28;19923;-67
2022/10/24 01:43:10;;;;;;;;;;;;;;;;;;5053713;28;19917;-67
2022/10/24 01:45:35;;;;;;;;;;;;;;;;;;5053493;28;19916;-67
2022/10/24 01:48:01;;;;;;;;;;;;;;;;;;5053788;28;19962;-67
2022/10/24 01:50:27;;;;;;;;;;;;;;;;;;5053731;28;19963;-67
2022/10/24 01:52:53;;;;;;;;;;;;;;;;;;5053306;28;19978;-67
2022/10/24 01:55:19;;;;;;;;;;;;;;;;;;5053720;28;19909;-67
2022/10/24 01:57:45;;;;;;;;;;;;;;;;;;5053662;28;19951;-67
2022/10/24 02:00:11;;;;;;;;;;;;;;;;;;5053254;28;19909;-67
2022/10/24 02:02:37;;;;;;;;;;;;;;;;;;5053380;28;19921;-67
2022/10/24 02:05:03;;;;;;;;;;;;;;;;;;5053301;28;19952;-67
2022/10/24 02:07:29;;;;;;;;;;;;;;;;;;5053565;28;19908;-66
2022/10/24 02:09:55;;;;;;;;;;;;;;;;;;5053527;28;20051;-66
2022/10/24 02:12:21;;;;;;;;;;;;;;;;;;5053139;28;19951;-67
2022/10/24 02:14:47;;;;;;;;;;;;;;;;;;5053779;28;19916;-67
2022/10/24 02:17:13;;;;;;;;;;;;;;;;;;5053791;28;19908;-67
2022/10/24 02:19:39;;;;;;;;;;;;;;;;;;5053157;28;19917;-67
2022/10/24 02:22:04;;;;;;;;;;;;;;;;;;5053490;28;19909;-66
2022/10/24 02:24:30;;;;;;;;;;;;;;;;;;5053473;28;20328;-67
2022/10/24 02:26:56;;;;;;;;;;;;;;;;;;5051696;28;19932;-67
2022/10/24 02:29:22;;;;;;;;;;;;;;;;;;5053369;28;19952;-67
2022/10/24 02:31:48;;;;;;;;;;;;;;;;;;5052075;28;19966;-67
2022/10/24 02:34:14;;;;;;;;;;;;;;;;;;5052961;28;19908;-67
2022/10/24 02:36:40;;;;;;;;;;;;;;;;;;5053291;28;20003;-67
2022/10/24 02:39:06;;;;;;;;;;;;;;;;;;5053260;28;19909;-67
2022/10/24 02:41:32;;;;;;;;;;;;;;;;;;5051616;28;19915;-67
2022/10/24 02:43:58;;;;;;;;;;;;;;;;;;5053478;28;19917;-67
2022/10/24 02:46:24;;;;;;;;;;;;;;;;;;5053264;28;19939;-66
2022/10/24 02:48:50;;;;;;;;;;;;;;;;;;5053307;28;19909;-67
2022/10/24 02:51:16;;;;;;;;;;;;;;;;;;5057002;28;19909;-67
2022/10/24 02:53:42;;;;;;;;;;;;;;;;;;5057202;28;19959;-67
2022/10/24 02:56:07;;;;;;;;;;;;;;;;;;5056653;28;19909;-67
2022/10/24 02:58:33;;;;;;;;;;;;;;;;;;5056900;28;19916;-67
2022/10/24 03:00:59;;;;;;;;;;;;;;;;;;5056884;28;20038;-66
2022/10/24 03:03:25;;;;;;;;;;;;;;;;;;5056184;28;19921;-67
2022/10/24 03:05:51;;;;;;;;;;;;;;;;;;5056958;28;19920;-66
2022/10/24 03:08:17;;;;;;;;;;;;;;;;;;5056351;28;19908;-67
2022/10/24 03:10:43;;;;;;;;;;;;;;;;;;5056717;28;19908;-67
2022/10/24 03:13:09;;;;;;;;;;;;;;;;;;5056714;28;19909;-67
2022/10/24 03:15:35;;;;;;;;;;;;;;;;;;5054978;28;20381;-67
2022/10/24 03:18:01;;;;;;;;;;;;;;;;;;5056509;28;20381;-67
2022/10/24 03:20:27;;;;;;;;;;;;;;;;;;5056855;28;20392;-67
2022/10/24 03:22:53;;;;;;;;;;;;;;;;;;5054736;28;20417;-67
2022/10/24 03:25:19;;;;;;;;;;;;;;;;;;5056552;28;20361;-67
2022/10/24 03:27:45;;;;;;;;;;;;;;;;;;5056468;28;19916;-67
2022/10/24 03:30:11;;;;;;;;;;;;;;;;;;5054662;28;19909;-67
2022/10/24 03:32:36;;;;;;;;;;;;;;;;;;5056446;28;19999;-67
2022/10/24 03:35:02;;;;;;;;;;;;;;;;;;5056286;28;19916;-67
2022/10/24 03:37:28;;;;;;;;;;;;;;;;;;5055832;28;19913;-67
2022/10/24 03:39:54;;;;;;;;;;;;;;;;;;5056226;28;19995;-67
2022/10/24 03:42:20;;;;;;;;;;;;;;;;;;5056058;28;19966;-67
2022/10/24 03:44:46;;;;;;;;;;;;;;;;;;5054348;28;19913;-67
2022/10/24 03:47:12;;;;;;;;;;;;;;;;;;5056627;28;20004;-67
2022/10/24 03:49:38;;;;;;;;;;;;;;;;;;5055903;28;19913;-67
2022/10/24 03:52:04;;;;;;;;;;;;;;;;;;5055590;28;19915;-67
2022/10/24 03:54:30;;;;;;;;;;;;;;;;;;5055910;28;19909;-67
2022/10/24 03:56:56;;;;;;;;;;;;;;;;;;5055848;28;20030;-67
2022/10/24 03:59:22;;;;;;;;;;;;;;;;;;5055407;28;20007;-67
2022/10/24 04:01:48;;;;;;;;;;;;;;;;;;5055409;28;19909;-66
2022/10/24 04:04:14;;;;;;;;;;;;;;;;;;5055837;28;19923;-67
2022/10/24 04:06:41;;;;;;;;;;;;;;;;;;5055280;28;19909;-67
2022/10/24 04:09:07;;;;;;;;;;;;;;;;;;5054316;28;20376;-67
2022/10/24 04:11:33;;;;;;;;;;;;;;;;;;5055167;28;19916;-67
2022/10/24 04:13:59;;;;;;;;;;;;;;;;;;5055458;28;19913;-67
2022/10/24 04:16:25;;;;;;;;;;;;;;;;;;5055387;28;20361;-67
2022/10/24 04:18:51;;;;;;;;;;;;;;;;;;5053678;28;19961;-68
2022/10/24 04:21:17;;;;;;;;;;;;;;;;;;5055526;28;19912;-67
2022/10/24 04:23:43;;;;;;;;;;;;;;;;;;5055477;28;20025;-67
2022/10/24 04:26:09;;;;;;;;;;;;;;;;;;5054896;28;19909;-67
2022/10/24 04:28:35;;;;;;;;;;;;;;;;;;5053904;28;20415;-67
2022/10/24 04:31:01;;;;;;;;;;;;;;;;;;5055130;28;20381;-67
2022/10/24 04:33:27;;;;;;;;;;;;;;;;;;5054967;28;20400;-67
2022/10/24 04:35:53;;;;;;;;;;;;;;;;;;5055037;28;20364;-67
2022/10/24 04:38:19;;;;;;;;;;;;;;;;;;5055013;28;19912;-67
2022/10/24 04:40:45;;;;;;;;;;;;;;;;;;5054634;28;19909;-67
2022/10/24 04:43:11;;;;;;;;;;;;;;;;;;5054907;28;19916;-67
2022/10/24 04:45:37;;;;;;;;;;;;;;;;;;5055022;28;19916;-67
2022/10/24 04:48:02;;;;;;;;;;;;;;;;;;5054463;28;19908;-67
2022/10/24 04:50:28;;;;;;;;;;;;;;;;;;5055098;28;19959;-67
2022/10/24 04:52:54;;;;;;;;;;;;;;;;;;5054744;28;20345;-67
2022/10/24 04:55:20;;;;;;;;;;;;;;;;;;5054302;28;20386;-67
2022/10/24 04:57:46;;;;;;;;;;;;;;;;;;5055115;28;20423;-67
2022/10/24 05:00:12;;;;;;;;;;;;;;;;;;5054864;28;20308;-67
2022/10/24 05:02:38;;;;;;;;;;;;;;;;;;5052680;28;20308;-67
2022/10/24 05:05:04;;;;;;;;;;;;;;;;;;5054467;28;20285;-67
2022/10/24 05:07:30;;;;;;;;;;;;;;;;;;5054402;28;20316;-67
2022/10/24 05:09:56;;;;;;;;;;;;;;;;;;5054080;28;20309;-67
2022/10/24 05:12:22;;;;;;;;;;;;;;;;;;5053823;28;19909;-67
2022/10/24 05:14:48;;;;;;;;;;;;;;;;;;5053971;28;20139;-67
2022/10/24 05:17:14;;;;;;;;;;;;;;;;;;5054280;28;19909;-67
2022/10/24 05:19:40;;;;;;;;;;;;;;;;;;5054370;28;19931;-67
2022/10/24 05:22:05;;;;;;;;;;;;;;;;;;5053721;28;19916;-67
2022/10/24 05:24:31;;;;;;;;;;;;;;;;;;5054563;28;20373;-67
2022/10/24 05:26:57;;;;;;;;;;;;;;;;;;5054933;28;20337;-67
2022/10/24 05:29:24;;;;;;;;;;;;;;;;;;5053692;28;19908;-67
2022/10/24 05:31:50;;;;;;;;;;;;;;;;;;5054034;28;19909;-69
2022/10/24 05:34:16;;;;;;;;;;;;;;;;;;5052818;28;20040;-68
2022/10/24 05:36:42;;;;;;;;;;;;;;;;;;5052404;28;19916;-67
2022/10/24 05:39:08;;;;;;;;;;;;;;;;;;5053942;28;19909;-67
2022/10/24 05:41:33;;;;;;;;;;;;;;;;;;5053898;28;19913;-67
2022/10/24 05:43:59;;;;;;;;;;;;;;;;;;5053572;28;19952;-67
2022/10/24 05:46:25;;;;;;;;;;;;;;;;;;5053779;28;19909;-67
2022/10/24 05:48:51;;;;;;;;;;;;;;;;;;5053808;28;19995;-67
2022/10/24 05:51:17;;;;;;;;;;;;;;;;;;5053483;28;19952;-67
2022/10/24 05:53:43;;;;;;;;;;;;;;;;;;5053789;28;19909;-66
2022/10/24 05:56:09;;;;;;;;;;;;;;;;;;5053726;28;19959;-68
2022/10/24 05:58:35;;;;;;;;;;;;;;;;;;5053471;28;20369;-68
2022/10/24 06:01:01;;;;;;;;;;;;;;;;;;5052908;28;19908;-68
2022/10/24 06:03:27;;;;;;;;;;;;;;;;;;5053549;28;19921;-68
2022/10/24 06:05:53;;;;;;;;;;;;;;;;;;5053203;28;19955;-68
2022/10/24 06:08:19;;;;;;;;;;;;;;;;;;5053601;28;19909;-68
2022/10/24 06:10:45;;;;;;;;;;;;;;;;;;5053555;28;19909;-68
2022/10/24 06:13:11;;;;;;;;;;;;;;;;;;5053191;28;19931;-67
2022/10/24 06:15:37;;;;;;;;;;;;;;;;;;5053546;28;19909;-68
2022/10/24 06:18:03;;;;;;;;;;;;;;;;;;5053419;28;19962;-68
2022/10/24 06:20:29;;;;;;;;;;;;;;;;;;5053516;28;19913;-68
2022/10/24 06:22:55;;;;;;;;;;;;;;;;;;5053439;28;19919;-67
2022/10/24 06:25:21;;;;;;;;;;;;;;;;;;5056095;28;19916;-68
2022/10/24 06:27:47;;;;;;;;;;;;;;;;;;5057531;28;19909;-68
2022/10/24 06:30:13;;;;;;;;;;;;;;;;;;5057465;28;19908;-68
2022/10/24 06:32:39;;;;;;;;;;;;;;;;;;5057296;28;19916;-68
2022/10/24 06:35:05;;;;;;;;;;;;;;;;;;5056122;28;19946;-68
2022/10/24 06:37:32;;;;;;;;;;;;;;;;;;5057349;28;20357;-68
2022/10/24 06:39:58;;;;;;;;;;;;;;;;;;5055707;28;20127;-68
2022/10/24 06:42:24;;;;;;;;;;;;;;;;;;5057151;28;19960;-68
2022/10/24 06:44:50;;;;;;;;;;;;;;;;;;5055932;28;19963;-68
2022/10/24 06:47:16;;;;;;;;;;;;;;;;;;5056702;28;19909;-68
2022/10/24 06:49:42;;;;;;;;;;;;;;;;;;5057081;28;19909;-67
2022/10/24 06:52:08;;;;;;;;;;;;;;;;;;5057239;28;19913;-67
2022/10/24 06:54:35;;;;;;;;;;;;;;;;;;5055278;28;20003;-67
2022/10/24 06:57:01;;;;;;;;;;;;;;;;;;5056966;28;20334;-67
2022/10/24 06:59:27;;;;;;;;;;;;;;;;;;5056896;28;19940;-67
2022/10/24 07:01:53;;;;;;;;;;;;;;;;;;5056462;28;20294;-67
2022/10/24 07:04:19;;;;;;;;;;;;;;;;;;5057033;28;19920;-67
2022/10/24 07:06:45;;;;;;;;;;;;;;;;;;5056778;28;19908;-67
2022/10/24 07:09:11;;;;;;;;;;;;;;;;;;5056413;28;20050;-68
2022/10/24 07:11:37;;;;;;;;;;;;;;;;;;5056694;28;19909;-67
2022/10/24 07:14:03;;;;;;;;;;;;;;;;;;5056689;28;19909;-68
2022/10/24 07:16:29;;;;;;;;;;;;;;;;;;5056216;28;19913;-67
2022/10/24 07:18:55;;;;;;;;;;;;;;;;;;5056682;28;19913;-68
2022/10/24 07:23:18;;;;;;;;;;;;;;;;;;5111396;27;20394;-67
2022/10/24 07:25:44;;;;;;;;;;;;;;;;;;5111720;28;19994;-67
2022/10/24 07:28:10;;;;;;;;;;;;;;;;;;5110342;28;19919;-67
2022/10/24 07:30:36;;;;;;;;;;;;;;;;;;5109925;28;19915;-67
2022/10/24 07:33:02;;;;;;;;;;;;;;;;;;5111637;28;19908;-69
2022/10/24 07:35:28;;;;;;;;;;;;;;;;;;5111115;28;19908;-69
2022/10/24 07:40:10;;;;;;;;;;;;;;;;;;5091815;27;19916;-67
2022/10/24 07:42:36;;;;;;;;;;;;;;;;;;5090917;28;20019;-67
2022/10/24 07:45:03;;;;;;;;;;;;;;;;;;5090030;28;19962;-67
2022/10/24 07:47:29;;;;;;;;;;;;;;;;;;5091240;28;20381;-67
2022/10/24 07:49:55;;;;;;;;;;;;;;;;;;5090942;28;19909;-67
2022/10/24 07:52:21;;;;;;;;;;;;;;;;;;5090390;28;19908;-67
2022/10/24 07:56:54;;;;;;;;;;;;;;;;;;5111691;27;19923;-66
2022/10/24 07:59:39;;;;;;;;;;;;;;;;;;5091861;27;19916;-67
2022/10/24 08:02:05;;;;;;;;;;;;;;;;;;5090074;28;20428;-67
2022/10/24 08:04:31;;;;;;;;;;;;;;;;;;5090917;28;19912;-67
2022/10/24 08:06:57;;;;;;;;;;;;;;;;;;5091297;28;19915;-68
2022/10/24 08:09:23;;;;;;;;;;;;;;;;;;5091523;28;19908;-68
2022/10/24 08:11:49;;;;;;;;;;;;;;;;;;5090961;28;19912;-68
2022/10/24 08:16:05;;;;;;;;;;;;;;;;;;5091926;27;19939;-67
2022/10/24 08:18:31;;;;;;;;;;;;;;;;;;5091366;28;20403;-66
2022/10/24 08:23:31;;;;;;;;;;;;;;;;;;5091475;27;19923;-66
2022/10/24 08:25:56;;;;;;;;;;;;;;;;;;5090913;28;20003;-67
2022/10/24 08:28:23;;;;;;;;;;;;;;;;;;5091319;28;19908;-67
2022/10/24 08:30:49;;;;;;;;;;;;;;;;;;5091459;28;19915;-67
2022/10/24 08:35:12;;;;;;;;;;;;;;;;;;5091630;28;19922;-68
2022/10/24 08:37:38;;;;;;;;;;;;;;;;;;5091388;28;19999;-68
2022/10/24 08:40:04;;;;;;;;;;;;;;;;;;5090800;28;19962;-67
2022/10/24 08:43:11;;;;;;;;;;;;;;;;;;5091638;27;20311;-66
2022/10/24 08:47:45;;;;;;;;;;;;;;;;;;5111371;27;19922;-67
2022/10/24 08:50:11;;;;;;;;;;;;;;;;;;5111719;28;20339;-67
2022/10/24 08:53:06;;;;;;;;;;;;;;;;;;5091284;27;19927;-67
2022/10/24 08:55:32;;;;;;;;;;;;;;;;;;5091480;28;19913;-68
2022/10/24 09:01:18;;;;;;;;;;;;;;;;;;5091010;27;19918;-67
2022/10/24 09:04:59;;;;;;;;;;;;;;;;;;5091643;27;20377;-67
2022/10/24 09:07:25;;;;;;;;;;;;;;;;;;5090892;28;20008;-67
2022/10/24 09:14:07;;;;;;;;;;;;;;;;;;5144634;27;19923;-67
2022/10/24 09:16:33;;;;;;;;;;;;;;;;;;5111793;28;20010;-67
2022/10/24 09:18:59;;;;;;;;;;;;;;;;;;5111647;28;19908;-67
2022/10/24 09:23:57;;;;;;;;;;;;;;;;;;5153228;27;20010;-67
2022/10/24 09:32:59;;;;;;;;;;;;;;;;;;5091603;28;19916;-67
2022/10/24 09:35:25;;;;;;;;;;;;;;;;;;5090970;28;20003;-67
2022/10/24 09:38:36;;;;;;;;;;;;;;;;;;5091661;27;19916;-67
2022/10/24 09:41:02;;;;;;;;;;;;;;;;;;5091307;28;20034;-68
2022/10/24 09:43:49;;;;;;;;;;;;;;;;;;5111700;27;20402;-68
2022/10/24 09:47:00;;;;;;;;;;;;;;;;;;5111748;27;19912;-67
2022/10/24 09:54:07;;;;;;;;;;;;;;;;;;5112533;27;19915;-67
2022/10/24 09:56:33;;;;;;;;;;;;;;;;;;5111489;28;20328;-68
2022/10/24 10:01:30;;;;;;;;;;;;;;;;;;5091799;27;20266;-68
2022/10/24 10:08:04;;;;;;;;;;;;;;;;;;5111914;27;19918;-67
2022/10/24 10:10:30;;;;;;;;;;;;;;;;;;5110053;28;20010;-67
2022/10/24 10:12:56;;;;;;;;;;;;;;;;;;5111714;28;19908;-69
2022/10/24 10:15:22;;;;;;;;;;;;;;;;;;5111705;28;19912;-67
2022/10/24 10:18:21;;;;;;;;;;;;;;;;;;5111955;27;19922;-69
2022/10/24 10:22:20;;;;;;;;;;;;;;;;;;5092001;27;19923;-68
2022/10/24 10:24:46;;;;;;;;;;;;;;;;;;5091224;28;20035;-68
2022/10/24 10:27:12;;;;;;;;;;;;;;;;;;5091664;28;19913;-68
2022/10/24 10:29:38;;;;;;;;;;;;;;;;;;5091537;28;19908;-68
2022/10/24 10:32:05;;;;;;;;;;;;;;;;;;5090699;28;20365;-68
2022/10/24 10:34:31;;;;;;;;;;;;;;;;;;5091537;28;19962;-68
2022/10/24 10:36:57;;;;;;;;;;;;;;;;;;5091053;28;19908;-67
2022/10/24 10:39:23;;;;;;;;;;;;;;;;;;5090813;28;19909;-67
2022/10/24 10:41:49;;;;;;;;;;;;;;;;;;5090994;28;20015;-68
2022/10/24 10:44:15;;;;;;;;;;;;;;;;;;5091011;28;19909;-67
2022/10/24 10:46:41;;;;;;;;;;;;;;;;;;5090668;28;20371;-68
2022/10/24 10:49:07;;;;;;;;;;;;;;;;;;5089623;28;20323;-68
2022/10/24 10:51:33;;;;;;;;;;;;;;;;;;5090838;28;19958;-68
2022/10/24 10:53:59;;;;;;;;;;;;;;;;;;5090389;28;19908;-67
2022/10/24 10:56:25;;;;;;;;;;;;;;;;;;5089468;28;19915;-68
2022/10/24 10:58:51;;;;;;;;;;;;;;;;;;5091142;28;19909;-68
2022/10/24 11:01:17;;;;;;;;;;;;;;;;;;5090251;28;20442;-68
2022/10/24 11:03:43;;;;;;;;;;;;;;;;;;5090732;28;20373;-67
2022/10/24 11:06:09;;;;;;;;;;;;;;;;;;5089387;28;20288;-67
2022/10/24 11:08:38;;;;;;;;;;;;;;;;;;5090129;28;20289;-67
2022/10/24 11:11:04;;;;;;;;;;;;;;;;;;5090398;28;19909;-67
2022/10/24 11:13:30;;;;;;;;;;;;;;;;;;5090520;28;19912;-67
2022/10/24 11:15:56;;;;;;;;;;;;;;;;;;5090115;28;19908;-67
2022/10/24 11:18:22;;;;;;;;;;;;;;;;;;5090632;28;19908;-67
2022/10/24 11:20:50;;;;;;;;;;;;;;;;;;5089571;28;19920;-67
2022/10/24 11:23:15;;;;;;;;;;;;;;;;;;5088988;28;20387;-67
2022/10/24 11:25:41;;;;;;;;;;;;;;;;;;5090142;28;19912;-67
2022/10/24 11:28:07;;;;;;;;;;;;;;;;;;5090177;28;20376;-67
2022/10/24 11:30:33;;;;;;;;;;;;;;;;;;5090346;28;20323;-67
2022/10/24 11:32:59;;;;;;;;;;;;;;;;;;5080406;28;20319;-67
2022/10/24 11:35:25;;;;;;;;;;;;;;;;;;5076169;28;20280;-67
2022/10/24 11:37:51;;;;;;;;;;;;;;;;;;5076514;28;19908;-67
2022/10/24 11:40:17;;;;;;;;;;;;;;;;;;5076380;28;19913;-67
2022/10/24 11:42:43;;;;;;;;;;;;;;;;;;5076163;28;19912;-67
2022/10/24 11:45:09;;;;;;;;;;;;;;;;;;5076336;28;19953;-67
2022/10/24 11:47:35;;;;;;;;;;;;;;;;;;5076333;28;19912;-67
2022/10/24 11:50:01;;;;;;;;;;;;;;;;;;5075877;28;19916;-67
2022/10/24 11:52:27;;;;;;;;;;;;;;;;;;5076432;28;19909;-68
2022/10/24 11:54:53;;;;;;;;;;;;;;;;;;5076210;28;20392;-68
2022/10/24 11:57:19;;;;;;;;;;;;;;;;;;5075810;28;20284;-68
2022/10/24 11:59:44;;;;;;;;;;;;;;;;;;5076222;28;19909;-68
2022/10/24 12:02:10;;;;;;;;;;;;;;;;;;5074637;28;20007;-68
2022/10/24 12:04:36;;;;;;;;;;;;;;;;;;5074330;28;19962;-68
2022/10/24 12:07:02;;;;;;;;;;;;;;;;;;5074668;28;19909;-68
2022/10/24 12:09:28;;;;;;;;;;;;;;;;;;5076310;28;19916;-68
2022/10/24 12:11:54;;;;;;;;;;;;;;;;;;5075506;28;19954;-68
2022/10/24 12:14:20;;;;;;;;;;;;;;;;;;5075798;28;19912;-68
2022/10/24 12:16:46;;;;;;;;;;;;;;;;;;5075834;28;19908;-68
2022/10/24 12:19:12;;;;;;;;;;;;;;;;;;5075406;28;19912;-68
2022/10/24 12:21:38;;;;;;;;;;;;;;;;;;5075490;28;19920;-68
2022/10/24 12:24:04;;;;;;;;;;;;;;;;;;5075264;28;19909;-68
2022/10/24 12:26:30;;;;;;;;;;;;;;;;;;5075629;28;19920;-68
2022/10/24 12:28:56;;;;;;;;;;;;;;;;;;5074287;28;19955;-68
2022/10/24 12:31:22;;;;;;;;;;;;;;;;;;5075164;28;19912;-69
2022/10/24 12:33:48;;;;;;;;;;;;;;;;;;5074207;28;19909;-68
2022/10/24 12:36:14;;;;;;;;;;;;;;;;;;5075385;28;19909;-68
2022/10/24 12:38:41;;;;;;;;;;;;;;;;;;5074846;28;19912;-68
2022/10/24 12:41:10;;;;;;;;;;;;;;;;;;5073870;28;19921;-68
2022/10/24 12:43:36;;;;;;;;;;;;;;;;;;5074514;28;19915;-68
2022/10/24 12:46:03;;;;;;;;;;;;;;;;;;5074638;28;19908;-67
2022/10/24 12:48:29;;;;;;;;;;;;;;;;;;5075461;28;20444;-68
2022/10/24 12:50:55;;;;;;;;;;;;;;;;;;5075154;28;19999;-68
2022/10/24 12:53:21;;;;;;;;;;;;;;;;;;5074783;28;20061;-68
2022/10/24 12:55:47;;;;;;;;;;;;;;;;;;5074997;28;19908;-69
2022/10/24 12:58:13;;;;;;;;;;;;;;;;;;5074913;28;19913;-68
2022/10/24 13:00:39;;;;;;;;;;;;;;;;;;5074556;28;20396;-68
2022/10/24 13:03:05;;;;;;;;;;;;;;;;;;5074758;28;20323;-68
2022/10/24 13:05:32;;;;;;;;;;;;;;;;;;5074782;28;19932;-69
2022/10/24 13:07:58;;;;;;;;;;;;;;;;;;5074247;28;19916;-68
2022/10/24 13:10:24;;;;;;;;;;;;;;;;;;5074672;28;19913;-68
2022/10/24 13:12:50;;;;;;;;;;;;;;;;;;5074920;28;19959;-68
2022/10/24 13:15:16;;;;;;;;;;;;;;;;;;5074335;28;19908;-68
2022/10/24 13:17:42;;;;;;;;;;;;;;;;;;5074540;28;20025;-68
2022/10/24 13:20:08;;;;;;;;;;;;;;;;;;5074428;28;19999;-69
2022/10/24 13:22:34;;;;;;;;;;;;;;;;;;5074094;28;20007;-68
2022/10/24 13:25:00;;;;;;;;;;;;;;;;;;5074787;28;19912;-69
2022/10/24 13:27:26;;;;;;;;;;;;;;;;;;5073951;28;19908;-69
2022/10/24 13:29:52;;;;;;;;;;;;;;;;;;5073032;28;19954;-66
2022/10/24 13:32:18;;;;;;;;;;;;;;;;;;5074310;28;19916;-68
2022/10/24 13:34:44;;;;;;;;;;;;;;;;;;5073875;28;19963;-69
2022/10/24 13:37:11;;;;;;;;;;;;;;;;;;5074908;28;19956;-68
2022/10/24 13:39:37;;;;;;;;;;;;;;;;;;5074156;28;19909;-67
2022/10/24 13:42:03;;;;;;;;;;;;;;;;;;5073684;28;19916;-67
2022/10/24 13:44:29;;;;;;;;;;;;;;;;;;5074132;28;19953;-67
2022/10/24 13:46:55;;;;;;;;;;;;;;;;;;5074039;28;19908;-67
2022/10/24 13:49:21;;;;;;;;;;;;;;;;;;5073660;28;19915;-67
2022/10/24 13:51:47;;;;;;;;;;;;;;;;;;5074365;28;19909;-67
2022/10/24 13:54:13;;;;;;;;;;;;;;;;;;5073998;28;19909;-68
2022/10/24 13:56:38;;;;;;;;;;;;;;;;;;5072206;28;19916;-68
2022/10/24 13:59:06;;;;;;;;;;;;;;;;;;5072795;28;19999;-68
2022/10/24 14:01:35;;;;;;;;;;;;;;;;;;5073689;28;19916;-68
2022/10/24 14:04:00;;;;;;;;;;;;;;;;;;5073485;28;19940;-68
2022/10/24 14:06:26;;;;;;;;;;;;;;;;;;5073859;28;19908;-68
2022/10/24 14:08:52;;;;;;;;;;;;;;;;;;5073848;28;19932;-68
2022/10/24 14:11:18;;;;;;;;;;;;;;;;;;5072189;28;19908;-69
2022/10/24 14:13:44;;;;;;;;;;;;;;;;;;5073806;28;20347;-68
2022/10/24 14:16:10;;;;;;;;;;;;;;;;;;5073766;28;19913;-68
2022/10/24 14:18:38;;;;;;;;;;;;;;;;;;5071923;28;19932;-68
2022/10/24 14:21:04;;;;;;;;;;;;;;;;;;5073361;28;19965;-68
2022/10/24 14:23:30;;;;;;;;;;;;;;;;;;5072692;28;19913;-68
2022/10/24 14:25:56;;;;;;;;;;;;;;;;;;5072148;28;19916;-68
2022/10/24 14:28:23;;;;;;;;;;;;;;;;;;5073709;28;19908;-68
2022/10/24 14:30:49;;;;;;;;;;;;;;;;;;5073495;28;19995;-68
2022/10/24 14:33:14;;;;;;;;;;;;;;;;;;5073730;28;19915;-68
2022/10/24 14:35:40;;;;;;;;;;;;;;;;;;5072302;28;20365;-68
2022/10/24 14:38:06;;;;;;;;;;;;;;;;;;5071912;28;19908;-68
2022/10/24 14:40:32;;;;;;;;;;;;;;;;;;5072259;28;19959;-68
2022/10/24 14:42:59;;;;;;;;;;;;;;;;;;5073570;28;19908;-68
2022/10/24 14:45:25;;;;;;;;;;;;;;;;;;5073121;28;20007;-68
2022/10/24 14:47:51;;;;;;;;;;;;;;;;;;5072133;28;19986;-68
2022/10/24 14:50:17;;;;;;;;;;;;;;;;;;5073636;28;19916;-68
2022/10/24 14:52:43;;;;;;;;;;;;;;;;;;5073250;28;19909;-68
2022/10/24 14:55:09;;;;;;;;;;;;;;;;;;5073549;28;19993;-68
2022/10/24 14:57:35;;;;;;;;;;;;;;;;;;5073322;28;19916;-69
2022/10/24 15:00:06;;;;;;;;;;;;;;;;;;5071629;28;19913;-69
2022/10/24 15:02:32;;;;;;;;;;;;;;;;;;5072250;28;20284;-68
2022/10/24 15:04:58;;;;;;;;;;;;;;;;;;5072078;28;19909;-67
2022/10/24 15:07:24;;;;;;;;;;;;;;;;;;5073972;28;20327;-67
2022/10/24 15:09:49;;;;;;;;;;;;;;;;;;5075781;28;20272;-67
2022/10/24 15:12:15;;;;;;;;;;;;;;;;;;5075722;28;19970;-68
2022/10/24 15:14:46;;;;;;;;;;;;;;;;;;5076490;28;19908;-68
2022/10/24 15:17:12;;;;;;;;;;;;;;;;;;5077195;28;19944;-68
2022/10/24 15:19:38;;;;;;;;;;;;;;;;;;5076925;28;19908;-68
2022/10/24 15:22:04;;;;;;;;;;;;;;;;;;5074939;28;19921;-67
2022/10/24 15:24:30;;;;;;;;;;;;;;;;;;5075492;28;20007;-69
2022/10/24 15:26:56;;;;;;;;;;;;;;;;;;5076446;28;19915;-67
2022/10/24 15:29:22;;;;;;;;;;;;;;;;;;5076657;28;19909;-67
2022/10/24 15:33:55;;;;;;;;;;;;;;;;;;5112106;27;20391;-68
2022/10/24 15:36:21;;;;;;;;;;;;;;;;;;5111711;28;20006;-68
2022/10/24 15:39:30;;;;;;;;;;;;;;;;;;5111905;27;19916;-68
2022/10/24 15:44:24;;;;;;;;;;;;;;;;;;5091839;28;19913;-69
2022/10/24 15:48:39;;;;;;;;;;;;;;;;;;5111481;27;19923;-67
2022/10/24 15:51:04;;;;;;;;;;;;;;;;;;5110528;28;19963;-68
2022/10/24 15:53:30;;;;;;;;;;;;;;;;;;5111764;28;19908;-68
2022/10/24 15:57:05;;;;;;;;;;;;;;;;;;5091022;27;19916;-68
2022/10/24 15:59:31;;;;;;;;;;;;;;;;;;5091626;28;20007;-68
2022/10/24 16:03:48;;;;;;;;;;;;;;;;;;5091016;27;19916;-67
2022/10/24 16:09:27;;;;;;;;;;;;;;;;;;5091270;27;19919;-69
2022/10/24 16:13:28;;;;;;;;;;;;;;;;;;5195577;27;19907;-67
2022/10/24 16:22:30;;;;;;;;;;;;;;;;;;5132969;27;19916;-67
2022/10/24 16:24:56;;;;;;;;;;;;;;;;;;5131853;28;20041;-68
2022/10/24 16:27:22;;;;;;;;;;;;;;;;;;5130954;28;19907;-69
2022/10/24 16:29:48;;;;;;;;;;;;;;;;;;5132256;28;19960;-69
2022/10/24 16:32:13;;;;;;;;;;;;;;;;;;5131811;28;19907;-69
2022/10/24 16:34:39;;;;;;;;;;;;;;;;;;5132107;28;19912;-68
2022/10/24 16:39:06;;;;;;;;;;;;;;;;;;5111428;27;19923;-67
2022/10/24 16:42:06;;;;;;;;;;;;;;;;;;5112117;27;20387;-67
2022/10/24 16:46:03;;;;;;;;;;;;;;;;;;5111357;27;19919;-67
2022/10/24 16:48:29;;;;;;;;;;;;;;;;;;5111804;28;20015;-67
2022/10/24 16:51:42;;;;;;;;;;;;;;;;;;5111526;27;19922;-67
2022/10/24 16:54:08;;;;;;;;;;;;;;;;;;5111677;28;20003;-67
2022/10/24 16:56:34;;;;;;;;;;;;;;;;;;5111742;28;20437;-67
2022/10/24 16:59:00;;;;;;;;;;;;;;;;;;5111634;28;19912;-67
2022/10/24 17:02:59;;;;;;;;;;;;;;;;;;5091722;27;20384;-68
2022/10/24 17:06:04;;;;;;;;;;;;;;;;;;5111390;27;20461;-68
2022/10/24 17:09:10;;;;;;;;;;;;;;;;;;5111925;27;20577;-68
2022/10/24 17:13:11;;;;;;;;;;;;;;;;;;5153155;27;19916;-67
2022/10/24 17:15:37;;;;;;;;;;;;;;;;;;5152969;27;20455;-68
2022/10/24 17:20:13;;;;;;;;;;;;;;;;;;5111914;27;19922;-67
2022/10/24 17:22:39;;;;;;;;;;;;;;;;;;5111740;28;20011;-67
2022/10/24 17:25:04;;;;;;;;;;;;;;;;;;5111621;28;20347;-68
2022/10/24 17:27:30;;;;;;;;;;;;;;;;;;5109972;28;19914;-67
2022/10/24 17:29:56;;;;;;;;;;;;;;;;;;5110351;28;19908;-68
2022/10/24 17:32:22;;;;;;;;;;;;;;;;;;5111723;28;19957;-68
2022/10/24 17:34:52;;;;;;;;;;;;;;;;;;5111090;28;19912;-68
2022/10/24 17:37:18;;;;;;;;;;;;;;;;;;5111442;28;20019;-68
2022/10/24 17:39:44;;;;;;;;;;;;;;;;;;5110049;28;20027;-68
2022/10/24 17:42:10;;;;;;;;;;;;;;;;;;5111096;28;19912;-67
2022/10/24 17:44:36;;;;;;;;;;;;;;;;;;5111230;28;20010;-67
2022/10/24 17:47:02;;;;;;;;;;;;;;;;;;5110024;28;19987;-67
2022/10/24 17:49:28;;;;;;;;;;;;;;;;;;5110928;28;19973;-68
2022/10/24 17:51:54;;;;;;;;;;;;;;;;;;5111266;28;19915;-69
2022/10/24 17:56:49;;;;;;;;;;;;;;;;;;5111822;27;19916;-67
2022/10/24 17:59:15;;;;;;;;;;;;;;;;;;5111753;28;20435;-67
2022/10/24 18:03:28;;;;;;;;;;;;;;;;;;5111451;27;19916;-66